Eldred, Pennsylvania
Current Conditions -  °F | °C
As of 4:53 PM on Friday 24 Oct 2014 (Local Time) from KBFD Reporting Station
Clear Clear  
Wind Chill: 56°   Ceiling: Unl
Heat Index: 56°   Visibility: 10mi
Dew Point: 30°   Wind: 12mph
Humidity: 37%   Direction: 310°NW
Pressure: 29.95"   Gusts: NA
Location:  41.96°N, 78.39°W
Report Text: KBFD 242053Z AUTO 31010KT 10SM CLR 13/M01 A2995 RMK AO2 SLP146 T01331011 57010
Loading
Personal Weather Stations






























Interactive Weather Map
Tropical Storm Tracking
New forecast layout! Learn more

10-Day Weather Forecast

Advertisements
Track Severe Weather on mobile